Time;durP1;ratioP1;P1;durP2;ratioP2;P2;SDS_P1;SDS_P2;PMS_P1;PMS_P2;Temp;Humidity;BMP_temperature;BMP_pressure;BME280_temperature;BME280_humidity;BME280_pressure;Samples;Min_cycle;Max_cycle;Signal;HPM_P1;HPM_P2
2023/06/06 00:05:55;;;;;;;12.45;6.35;;;;;;;18.16;60.07;100440.41;30889331;28;112628;-66
2023/06/06 00:20:55;;;;;;;10.83;6.30;;;;;;;18.01;61.40;100460.34;30732420;28;97549;-66
2023/06/06 00:35:56;;;;;;;10.43;6.10;;;;;;;17.63;63.00;100450.28;30966486;28;108891;-67
2023/06/06 00:50:56;;;;;;;11.30;6.05;;;;;;;17.40;64.28;100450.72;30959617;28;97108;-68
2023/06/06 01:05:57;;;;;;;8.68;5.82;;;;;;;17.27;65.66;100435.41;30856204;28;98194;-68
2023/06/06 01:20:58;;;;;;;9.25;6.15;;;;;;;17.25;66.81;100419.47;30895838;28;97147;-68
2023/06/06 01:36:15;;;;;;;25.87;20.47;;;;;;;17.18;67.71;100424.06;30991199;28;96786;-69
2023/06/06 01:51:16;;;;;;;53.67;47.93;;;;;;;17.13;68.55;100426.53;30891687;28;97401;-68
2023/06/06 02:06:16;;;;;;;28.52;25.48;;;;;;;17.13;69.09;100421.16;30864685;28;96854;-68
2023/06/06 02:21:16;;;;;;;27.58;21.95;;;;;;;17.03;69.77;100436.88;30863397;28;103552;-69
2023/06/06 02:36:18;;;;;;;12.90;8.65;;;;;;;16.94;70.25;100428.19;30847806;28;99824;-68
2023/06/06 02:51:22;;;;;;;12.07;8.33;;;;;;;16.83;70.63;100432.28;30854724;28;97532;-70
2023/06/06 03:06:23;;;;;;;10.57;8.33;;;;;;;16.75;71.25;100419.84;30857550;28;97563;-70
2023/06/06 03:21:23;;;;;;;10.15;7.72;;;;;;;16.72;71.56;100406.00;30829390;28;96806;-69
2023/06/06 03:36:23;;;;;;;10.65;7.90;;;;;;;16.67;71.73;100381.56;30734796;28;96752;-68
2023/06/06 03:51:24;;;;;;;11.43;8.05;;;;;;;16.76;71.92;100380.34;30841968;28;98213;-68
2023/06/06 04:06:25;;;;;;;12.50;7.67;;;;;;;16.86;72.23;100378.06;30911168;28;97964;-70
2023/06/06 04:21:26;;;;;;;10.30;7.50;;;;;;;16.90;72.28;100384.72;30792590;28;96775;-69
2023/06/06 04:36:26;;;;;;;10.43;7.35;;;;;;;16.97;72.33;100398.16;30795997;28;96906;-71
2023/06/06 04:51:32;;;;;;;10.13;8.00;;;;;;;16.71;72.12;100466.22;30837408;28;96989;-71
2023/06/06 05:06:36;;;;;;;10.27;8.57;;;;;;;16.63;72.93;100463.72;30869754;28;96718;-71
2023/06/06 05:21:37;;;;;;;13.40;10.40;;;;;;;16.92;73.14;100460.69;30867886;28;96654;-71
2023/06/06 05:36:37;;;;;;;10.65;8.60;;;;;;;17.42;72.55;100446.78;30866418;28;96905;-70
2023/06/06 05:51:38;;;;;;;11.48;8.57;;;;;;;18.24;71.80;100449.06;30864283;28;96719;-71
2023/06/06 06:06:38;;;;;;;10.27;8.20;;;;;;;18.94;70.35;100440.19;30861308;28;97013;-71
2023/06/06 06:21:38;;;;;;;12.05;8.10;;;;;;;19.67;68.90;100434.31;30861146;28;96670;-70
2023/06/06 06:36:39;;;;;;;8.52;7.40;;;;;;;20.29;66.71;100429.63;30860760;28;96759;-71
2023/06/06 06:51:40;;;;;;;;;;;;;;;21.06;65.37;100440.81;30861474;28;96771;-71
2023/06/06 07:06:41;;;;;;;8.77;6.25;;;;;;;22.14;62.56;100430.47;30859886;28;97293;-71
2023/06/06 07:21:41;;;;;;;10.13;5.78;;;;;;;22.93;59.57;100434.34;30858842;28;97530;-70
2023/06/06 07:36:41;;;;;;;6.65;4.93;;;;;;;23.98;55.31;100419.28;30855742;28;96756;-71
2023/06/06 07:51:42;;;;;;;10.18;5.35;;;;;;;24.99;52.31;100417.03;30852615;28;96830;-70
2023/06/06 08:06:42;;;;;;;7.40;5.05;;;;;;;25.86;49.00;100394.88;30849626;28;97456;-71
2023/06/06 08:21:43;;;;;;;6.45;4.88;;;;;;;26.57;45.71;100407.06;30851436;28;96732;-70
2023/06/06 08:36:44;;;;;;;8.38;3.83;;;;;;;27.35;43.34;100395.03;30853265;28;96688;-71
2023/06/06 08:51:47;;;;;;;7.07;4.10;;;;;;;28.44;39.86;100397.28;30851032;28;96761;-70
2023/06/06 09:06:50;;;;;;;4.90;3.93;;;;;;;29.02;37.25;100385.59;30849706;28;97151;-73
2023/06/06 09:21:51;;;;;;;6.80;4.20;;;;;;;30.00;35.71;100399.00;30849519;28;97006;-72
2023/06/06 09:36:52;;;;;;;5.87;2.83;;;;;;;30.73;33.42;100382.28;30867442;28;96705;-73
2023/06/06 09:51:53;;;;;;;6.07;3.60;;;;;;;30.93;31.87;100383.03;30866289;28;96741;-73
2023/06/06 10:06:54;;;;;;;5.15;3.53;;;;;;;30.83;31.31;100375.78;30771015;28;98424;-73
2023/06/06 10:21:55;;;;;;;5.93;3.23;;;;;;;30.91;30.29;100360.50;30786823;28;97335;-73
2023/06/06 10:36:57;;;;;;;5.57;3.07;;;;;;;30.94;29.89;100344.22;30741029;28;96807;-65
2023/06/06 10:52:05;;;;;;;6.23;3.43;;;;;;;31.30;29.21;100335.28;30739847;28;97593;-67
2023/06/06 11:07:15;;;;;;;4.57;2.53;;;;;;;32.17;26.47;100316.06;30736786;28;97276;-69
2023/06/06 11:22:25;;;;;;;5.73;3.17;;;;;;;32.34;25.88;100309.06;30736873;28;96677;-69
2023/06/06 11:37:26;;;;;;;5.07;2.50;;;;;;;32.02;24.58;100297.94;30735254;28;97621;-69
2023/06/06 12:23:06;;;;;;;5.37;2.57;;;;;;;31.29;23.48;100264.88;34286584;23;99695;-70
2023/06/06 12:38:08;;;;;;;7.28;2.47;;;;;;;32.71;22.50;100255.44;30729601;28;97227;-71
2023/06/06 12:53:10;;;;;;;4.83;2.07;;;;;;;33.50;21.49;100241.03;30710695;28;96826;-71
2023/06/06 13:08:11;;;;;;;7.17;2.47;;;;;;;34.22;20.11;100239.53;30745132;28;98460;-69
2023/06/06 13:23:11;;;;;;;5.57;2.70;;;;;;;34.71;19.40;100216.31;30801957;28;97831;-70
2023/06/06 13:38:16;;;;;;;7.85;2.33;;;;;;;33.37;20.56;100204.19;30850483;28;98053;-75
2023/06/06 13:53:16;;;;;;;3.63;2.37;;;;;;;31.43;22.77;100198.00;30864849;28;96782;-70
2023/06/06 14:08:16;;;;;;;4.47;2.28;;;;;;;30.93;23.13;100182.25;30864526;28;97631;-67
2023/06/06 14:23:17;;;;;;;4.70;2.45;;;;;;;30.34;23.86;100171.84;30859083;28;97009;-69
2023/06/06 14:38:17;;;;;;;5.43;2.50;;;;;;;29.93;24.58;100167.09;30859180;28;97431;-68
2023/06/06 14:53:17;;;;;;;6.55;2.45;;;;;;;29.32;25.34;100164.16;30861168;28;96888;-69
2023/06/06 15:08:18;;;;;;;4.93;2.50;;;;;;;28.97;25.91;100158.84;30860622;28;96801;-70
2023/06/06 15:23:18;;;;;;;5.00;2.67;;;;;;;28.61;26.55;100151.06;30854929;28;103070;-70
2023/06/06 15:38:19;;;;;;;6.57;2.63;;;;;;;28.10;26.57;100149.69;30857841;28;97651;-69
2023/06/06 15:53:20;;;;;;;4.03;2.75;;;;;;;27.49;27.74;100142.78;30852433;28;98466;-70
2023/06/06 16:08:20;;;;;;;5.43;2.97;;;;;;;27.21;28.54;100142.38;30852483;28;98656;-69
2023/06/06 16:23:21;;;;;;;7.93;3.20;;;;;;;26.76;29.32;100136.88;30851968;28;96857;-69
2023/06/06 16:38:21;;;;;;;7.07;2.65;;;;;;;26.23;30.07;100131.84;30803211;28;97508;-69
2023/06/06 16:53:21;;;;;;;6.43;3.42;;;;;;;25.71;31.25;100120.09;30741486;28;96735;-68
2023/06/06 17:08:22;;;;;;;5.65;2.83;;;;;;;25.31;32.31;100133.41;30739778;28;96951;-68
2023/06/06 17:23:22;;;;;;;6.68;3.03;;;;;;;24.99;33.21;100139.06;30739149;28;110733;-67
2023/06/06 17:38:22;;;;;;;5.88;3.72;;;;;;;24.73;34.43;100149.88;30787070;28;96794;-67
2023/06/06 17:53:23;;;;;;;8.05;4.20;;;;;;;24.19;37.03;100152.81;30860372;28;97456;-67
2023/06/06 18:08:23;;;;;;;8.30;4.30;;;;;;;23.57;40.02;100171.31;30861220;28;97075;-66
2023/06/06 18:23:24;;;;;;;7.25;4.97;;;;;;;22.75;44.93;100179.34;30862258;28;112280;-66
2023/06/06 18:38:24;;;;;;;9.45;4.47;;;;;;;22.05;48.28;100186.94;30861070;28;110514;-66
2023/06/06 18:53:24;;;;;;;8.57;6.60;;;;;;;21.47;50.82;100195.16;30858524;28;110575;-66
2023/06/06 19:08:25;;;;;;;9.87;6.30;;;;;;;20.77;54.66;100222.19;30854605;28;97473;-66
2023/06/06 19:23:25;;;;;;;9.80;7.30;;;;;;;20.13;57.97;100249.06;30856151;28;97714;-65
2023/06/06 19:38:26;;;;;;;8.83;7.83;;;;;;;20.08;59.63;100257.03;30858106;28;97403;-66
2023/06/06 19:53:26;;;;;;;;;;;;;;;20.06;59.97;100286.22;30855777;28;96958;-67
2023/06/06 20:08:27;;;;;;;9.63;7.20;;;;;;;19.95;60.53;100298.63;30856288;28;96729;-70
2023/06/06 20:23:27;;;;;;;10.40;7.82;;;;;;;20.03;61.67;100297.50;30852602;28;100905;-69
2023/06/06 20:38:27;;;;;;;10.57;7.75;;;;;;;20.24;60.98;100299.66;30853962;28;96730;-69
2023/06/06 20:53:28;;;;;;;12.07;7.50;;;;;;;20.21;61.65;100300.13;30853631;28;96955;-69
2023/06/06 21:08:29;;;;;;;10.43;7.10;;;;;;;20.36;61.57;100290.75;30849195;28;96773;-69
2023/06/06 21:23:29;;;;;;;12.07;7.70;;;;;;;20.53;61.41;100297.13;30856326;28;97550;-69
2023/06/06 21:38:30;;;;;;;16.50;10.13;;;;;;;20.46;61.61;100285.56;30869285;28;97813;-69
2023/06/06 21:53:32;;;;;;;16.17;9.23;;;;;;;20.46;61.72;100281.00;30867851;28;96981;-69
2023/06/06 22:08:33;;;;;;;13.37;9.03;;;;;;;20.49;61.61;100284.28;30866410;28;97409;-68
2023/06/06 22:23:33;;;;;;;10.30;8.47;;;;;;;20.13;61.79;100278.81;30861796;28;96815;-69
2023/06/06 22:38:34;;;;;;;10.38;8.38;;;;;;;19.90;62.10;100276.84;30862279;28;97259;-70
2023/06/06 22:53:34;;;;;;;11.75;8.20;;;;;;;19.34;62.71;100263.44;30861004;28;96682;-70
2023/06/06 23:08:35;;;;;;;10.07;8.15;;;;;;;19.21;63.12;100258.19;30860209;28;96931;-69
2023/06/06 23:23:36;;;;;;;10.38;7.90;;;;;;;19.56;63.39;100252.13;30858401;28;97589;-68
2023/06/06 23:38:36;;;;;;;;;;;;;;;19.67;62.73;100239.72;30858215;28;97338;-69
2023/06/06 23:53:36;;;;;;;11.75;7.68;;;;;;;19.57;62.22;100246.53;30855034;28;98079;-68
